createdAt,value
2023-04-28T00:00:23.862Z,289.00
2023-04-28T00:01:23.858Z,288.00
2023-04-28T00:02:24.022Z,289.00
2023-04-28T00:03:24.104Z,291.00
2023-04-28T00:04:24.459Z,292.00
2023-04-28T00:05:24.037Z,291.00
2023-04-28T00:06:23.925Z,291.00
2023-04-28T00:07:23.972Z,289.00
2023-04-28T00:08:23.980Z,289.00
2023-04-28T00:09:23.983Z,291.00
2023-04-28T00:10:24.021Z,293.00
2023-04-28T00:11:24.013Z,293.00
2023-04-28T00:12:24.052Z,290.00
2023-04-28T00:13:24.066Z,291.00
2023-04-28T00:14:24.058Z,292.00
2023-04-28T00:15:24.096Z,293.00
2023-04-28T00:16:24.182Z,293.00
2023-04-28T00:17:24.193Z,290.00
2023-04-28T00:18:24.237Z,289.00
2023-04-28T00:19:24.144Z,289.00
2023-04-28T00:20:24.185Z,292.00
2023-04-28T00:21:24.204Z,294.00
2023-04-28T00:22:24.193Z,293.00
2023-04-28T00:23:24.220Z,294.00
2023-04-28T00:24:24.218Z,295.00
2023-04-28T00:25:24.274Z,294.00
2023-04-28T00:26:24.290Z,292.00
2023-04-28T00:27:24.308Z,292.00
2023-04-28T00:28:33.651Z,291.00
2023-04-28T00:29:25.309Z,290.00
2023-04-28T00:30:24.276Z,290.00
2023-04-28T00:31:24.267Z,289.00
2023-04-28T00:32:24.337Z,290.00
2023-04-28T00:33:24.273Z,287.00
2023-04-28T00:34:24.313Z,286.00
2023-04-28T00:35:24.278Z,288.00
2023-04-28T00:36:24.265Z,288.00
2023-04-28T00:37:24.255Z,288.00
2023-04-28T00:38:24.252Z,287.00
2023-04-28T00:39:24.235Z,284.00
2023-04-28T00:40:24.230Z,285.00
2023-04-28T00:41:24.249Z,286.00
2023-04-28T00:42:24.240Z,286.00
2023-04-28T00:43:24.219Z,286.00
2023-04-28T00:44:24.209Z,289.00
2023-04-28T00:45:24.201Z,289.00
2023-04-28T00:46:24.196Z,290.00
2023-04-28T00:47:24.240Z,291.00
2023-04-28T00:48:24.172Z,291.00
2023-04-28T00:49:24.164Z,289.00
2023-04-28T00:50:24.121Z,289.00
2023-04-28T00:51:24.120Z,288.00
2023-04-28T00:52:24.140Z,289.00
2023-04-28T00:53:24.109Z,289.00
2023-04-28T00:54:24.105Z,290.00
2023-04-28T00:55:24.149Z,288.00
2023-04-28T00:56:24.163Z,288.00
2023-04-28T00:57:24.168Z,290.00
2023-04-28T00:58:24.195Z,289.00
2023-04-28T00:59:24.259Z,288.00
2023-04-28T01:00:24.248Z,288.00
2023-04-28T01:01:24.356Z,287.00
2023-04-28T01:02:24.455Z,285.00
2023-04-28T01:03:24.395Z,287.00
2023-04-28T01:04:24.479Z,287.00
2023-04-28T01:05:24.389Z,286.00
2023-04-28T01:06:24.423Z,288.00
2023-04-28T01:07:24.389Z,287.00
2023-04-28T01:08:24.485Z,289.00
2023-04-28T01:09:24.515Z,290.00
2023-04-28T01:10:24.494Z,289.00
2023-04-28T01:11:24.509Z,289.00
2023-04-28T01:12:24.543Z,286.00
2023-04-28T01:13:24.553Z,284.00
2023-04-28T01:14:24.571Z,283.00
2023-04-28T01:15:24.626Z,282.00
2023-04-28T01:16:24.650Z,284.00
2023-04-28T01:17:24.706Z,285.00
2023-04-28T01:18:24.688Z,283.00
2023-04-28T01:19:24.716Z,285.00
2023-04-28T01:20:24.727Z,285.00
2023-04-28T01:21:24.791Z,286.00
2023-04-28T01:22:24.824Z,285.00
2023-04-28T01:23:24.824Z,284.00
2023-04-28T01:24:24.885Z,285.00
2023-04-28T01:25:24.889Z,288.00
2023-04-28T01:26:24.914Z,291.00
2023-04-28T01:27:24.945Z,292.00
2023-04-28T01:28:25.000Z,289.00
2023-04-28T01:29:24.982Z,288.00
2023-04-28T01:30:25.043Z,286.00
2023-04-28T01:31:25.108Z,287.00
2023-04-28T01:32:25.090Z,286.00
2023-04-28T01:33:25.156Z,287.00
2023-04-28T01:34:25.132Z,286.00
2023-04-28T01:35:25.161Z,286.00
2023-04-28T01:36:25.206Z,284.00
2023-04-28T01:37:25.237Z,283.00
2023-04-28T01:38:25.259Z,283.00
2023-04-28T01:39:25.350Z,283.00
2023-04-28T01:40:25.368Z,282.00
2023-04-28T01:41:25.379Z,285.00
2023-04-28T01:42:25.394Z,284.00
2023-04-28T01:43:25.434Z,283.00
2023-04-28T01:44:25.465Z,284.00
2023-04-28T01:45:25.490Z,284.00
2023-04-28T01:46:25.549Z,288.00
2023-04-28T01:47:25.576Z,287.00
2023-04-28T01:48:25.636Z,288.00
2023-04-28T01:49:25.638Z,289.00
2023-04-28T01:50:25.670Z,291.00
2023-04-28T01:51:25.698Z,290.00
2023-04-28T01:52:25.738Z,290.00
2023-04-28T01:53:25.773Z,288.00
2023-04-28T01:54:25.812Z,287.00
2023-04-28T01:55:25.809Z,288.00
2023-04-28T01:56:25.872Z,289.00
2023-04-28T01:57:25.939Z,290.00
2023-04-28T01:58:25.900Z,290.00
2023-04-28T01:59:25.941Z,290.00
2023-04-28T02:00:25.989Z,293.00
2023-04-28T02:01:26.044Z,291.00
2023-04-28T02:02:26.110Z,291.00
2023-04-28T02:03:26.213Z,291.00
2023-04-28T02:04:26.186Z,290.00
2023-04-28T02:05:26.158Z,291.00
2023-04-28T02:06:26.211Z,288.00
2023-04-28T02:07:26.217Z,290.00
2023-04-28T02:08:26.238Z,291.00
2023-04-28T02:09:26.264Z,290.00
2023-04-28T02:10:26.331Z,290.00
2023-04-28T02:11:26.348Z,290.00
2023-04-28T02:12:26.368Z,291.00
2023-04-28T02:13:26.424Z,289.00
2023-04-28T02:14:26.467Z,289.00
2023-04-28T02:15:26.488Z,289.00
2023-04-28T02:16:26.614Z,290.00
2023-04-28T02:17:26.569Z,290.00
2023-04-28T02:18:26.602Z,286.00
2023-04-28T02:19:26.597Z,286.00
2023-04-28T02:20:26.668Z,286.00
2023-04-28T02:21:26.645Z,286.00
2023-04-28T02:22:26.702Z,286.00
2023-04-28T02:23:26.721Z,285.00
2023-04-28T02:24:26.763Z,284.00
2023-04-28T02:25:26.763Z,283.00
2023-04-28T02:26:26.817Z,283.00
2023-04-28T02:27:26.870Z,283.00
2023-04-28T02:28:26.919Z,283.00
2023-04-28T02:29:26.927Z,283.00
2023-04-28T02:30:26.999Z,284.00
2023-04-28T02:31:27.071Z,284.00
2023-04-28T02:32:27.170Z,283.00
2023-04-28T02:33:27.056Z,284.00
2023-04-28T02:34:27.098Z,284.00
2023-04-28T02:35:27.140Z,287.00
2023-04-28T02:36:27.181Z,288.00
2023-04-28T02:37:27.201Z,289.00
2023-04-28T02:38:27.312Z,291.00
2023-04-28T02:39:27.355Z,290.00
2023-04-28T02:40:27.306Z,291.00
2023-04-28T02:41:27.312Z,291.00
2023-04-28T02:42:27.372Z,293.00
2023-04-28T02:43:27.432Z,293.00
2023-04-28T02:44:27.449Z,292.00
2023-04-28T02:45:27.551Z,291.00
2023-04-28T02:46:27.543Z,289.00
2023-04-28T02:47:27.540Z,290.00
2023-04-28T02:48:27.560Z,290.00
2023-04-28T02:49:27.574Z,288.00
2023-04-28T02:50:27.647Z,288.00
2023-04-28T02:51:27.689Z,288.00
2023-04-28T02:52:27.712Z,288.00
2023-04-28T02:53:27.749Z,289.00
2023-04-28T02:54:27.811Z,287.00
2023-04-28T02:55:27.829Z,287.00
2023-04-28T02:56:27.870Z,285.00
2023-04-28T02:57:27.875Z,285.00
2023-04-28T02:58:27.949Z,283.00
2023-04-28T02:59:28.076Z,283.00
2023-04-28T03:00:27.985Z,280.00
2023-04-28T03:01:28.040Z,281.00
2023-04-28T03:02:28.119Z,282.00
2023-04-28T03:03:28.138Z,283.00
2023-04-28T03:04:28.242Z,283.00
2023-04-28T03:05:28.194Z,283.00
2023-04-28T03:06:28.201Z,283.00
2023-04-28T03:07:28.244Z,284.00
2023-04-28T03:08:28.292Z,282.00
2023-04-28T03:09:28.343Z,281.00
2023-04-28T03:10:28.369Z,282.00
2023-04-28T03:11:28.409Z,281.00
2023-04-28T03:12:28.437Z,282.00
2023-04-28T03:13:28.490Z,283.00
2023-04-28T03:14:28.557Z,283.00
2023-04-28T03:15:28.580Z,284.00
2023-04-28T03:16:28.703Z,285.00
2023-04-28T03:17:28.691Z,285.00
2023-04-28T03:18:28.697Z,287.00
2023-04-28T03:19:28.734Z,288.00
2023-04-28T03:20:28.742Z,287.00
2023-04-28T03:21:28.821Z,285.00
2023-04-28T03:22:28.824Z,283.00
2023-04-28T03:23:28.865Z,284.00
2023-04-28T03:24:28.893Z,282.00
2023-04-28T03:25:28.962Z,279.00
2023-04-28T03:26:28.983Z,281.00
2023-04-28T03:27:29.020Z,282.00
2023-04-28T03:28:29.080Z,282.00
2023-04-28T03:29:29.119Z,283.00
2023-04-28T03:30:29.149Z,282.00
2023-04-28T03:31:29.234Z,281.00
2023-04-28T03:32:29.297Z,280.00
2023-04-28T03:33:29.276Z,280.00
2023-04-28T03:34:29.308Z,281.00
2023-04-28T03:35:29.375Z,280.00
2023-04-28T03:36:29.403Z,279.00
2023-04-28T03:37:29.449Z,278.00
2023-04-28T03:38:29.555Z,279.00
2023-04-28T03:39:29.509Z,280.00
2023-04-28T03:40:29.607Z,279.00
2023-04-28T03:41:29.664Z,279.00
2023-04-28T03:42:29.684Z,281.00
2023-04-28T03:43:29.759Z,280.00
2023-04-28T03:44:29.784Z,279.00
2023-04-28T03:45:29.789Z,281.00
2023-04-28T03:46:29.891Z,281.00
2023-04-28T03:47:29.880Z,283.00
2023-04-28T03:48:29.929Z,282.00
2023-04-28T03:49:29.986Z,281.00
2023-04-28T03:50:30.013Z,283.00
2023-04-28T03:51:30.082Z,282.00
2023-04-28T03:52:30.118Z,283.00
2023-04-28T03:53:30.172Z,282.00
2023-04-28T03:54:30.208Z,282.00
2023-04-28T03:55:30.239Z,283.00
2023-04-28T03:56:30.293Z,283.00
2023-04-28T03:57:30.340Z,284.00
2023-04-28T03:58:30.398Z,285.00
2023-04-28T03:59:30.502Z,285.00
2023-04-28T04:00:30.477Z,287.00
2023-04-28T04:01:30.556Z,284.00
2023-04-28T04:02:30.663Z,285.00
2023-04-28T04:03:30.848Z,283.00
2023-04-28T04:04:31.327Z,282.00
2023-04-28T04:05:30.785Z,284.00
2023-04-28T04:06:30.754Z,284.00
2023-04-28T04:07:30.829Z,286.00
2023-04-28T04:08:30.857Z,288.00
2023-04-28T04:09:30.928Z,288.00
2023-04-28T04:10:30.964Z,290.00
2023-04-28T04:11:30.982Z,292.00
2023-04-28T04:12:31.077Z,291.00
2023-04-28T04:13:31.164Z,292.00
2023-04-28T04:14:31.190Z,293.00
2023-04-28T04:15:31.263Z,294.00
2023-04-28T04:16:31.403Z,297.00
2023-04-28T04:17:31.384Z,298.00
2023-04-28T04:18:31.432Z,299.00
2023-04-28T04:19:31.492Z,301.00
2023-04-28T04:20:31.532Z,302.00
2023-04-28T04:21:31.633Z,302.00
2023-04-28T04:22:31.687Z,303.00
2023-04-28T04:23:31.742Z,301.00
2023-04-28T04:24:31.790Z,303.00
2023-04-28T04:25:31.772Z,305.00
2023-04-28T04:26:31.819Z,308.00
2023-04-28T04:27:31.854Z,306.00
2023-04-28T04:28:31.930Z,307.00
2023-04-28T04:29:31.981Z,307.00
2023-04-28T04:30:32.033Z,310.00
2023-04-28T04:31:32.051Z,311.00
2023-04-28T04:32:32.108Z,307.00
2023-04-28T04:33:32.104Z,308.00
2023-04-28T04:34:32.192Z,308.00
2023-04-28T04:35:32.188Z,312.00
2023-04-28T04:36:32.251Z,315.00
2023-04-28T04:37:32.302Z,315.00
2023-04-28T04:38:32.355Z,314.00
2023-04-28T04:39:32.389Z,315.00
2023-04-28T04:40:32.428Z,312.00
2023-04-28T04:41:32.473Z,312.00
2023-04-28T04:42:32.506Z,315.00
2023-04-28T04:43:32.530Z,314.00
2023-04-28T04:44:32.600Z,312.00
2023-04-28T04:45:32.628Z,312.00
2023-04-28T04:46:32.733Z,313.00
2023-04-28T04:47:32.744Z,313.00
2023-04-28T04:48:32.810Z,311.00
2023-04-28T04:49:32.821Z,312.00
2023-04-28T04:50:32.837Z,312.00
2023-04-28T04:51:32.854Z,313.00
2023-04-28T04:52:32.855Z,313.00
2023-04-28T04:53:32.921Z,312.00
2023-04-28T04:54:32.972Z,312.00
2023-04-28T04:55:33.007Z,310.00
2023-04-28T04:56:33.009Z,309.00
2023-04-28T04:57:33.039Z,311.00
2023-04-28T04:58:33.102Z,310.00
2023-04-28T04:59:33.107Z,311.00
2023-04-28T05:00:33.160Z,312.00
2023-04-28T05:01:33.224Z,311.00
2023-04-28T05:02:33.269Z,310.00
2023-04-28T05:03:33.337Z,308.00
2023-04-28T05:04:33.326Z,307.00
2023-04-28T05:05:33.399Z,308.00
2023-04-28T05:06:33.342Z,309.00
2023-04-28T05:07:33.397Z,309.00
2023-04-28T05:08:33.472Z,309.00
2023-04-28T05:09:33.467Z,308.00
2023-04-28T05:10:33.542Z,310.00
2023-04-28T05:11:33.591Z,310.00
2023-04-28T05:12:33.636Z,308.00
2023-04-28T05:13:33.707Z,310.00
2023-04-28T05:14:33.761Z,310.00
2023-04-28T05:15:33.839Z,311.00
2023-04-28T05:16:33.847Z,312.00
2023-04-28T05:17:33.913Z,312.00
2023-04-28T05:18:33.962Z,312.00
2023-04-28T05:19:34.012Z,312.00
2023-04-28T05:20:34.060Z,312.00
2023-04-28T05:21:34.130Z,311.00
2023-04-28T05:22:34.244Z,312.00
2023-04-28T05:23:34.246Z,309.00
2023-04-28T05:24:34.289Z,307.00
2023-04-28T05:25:34.339Z,309.00
2023-04-28T05:26:34.415Z,308.00
2023-04-28T05:27:34.465Z,309.00
2023-04-28T05:28:34.476Z,309.00
2023-04-28T05:29:34.541Z,309.00
2023-04-28T05:30:34.566Z,310.00
2023-04-28T05:31:34.679Z,311.00
2023-04-28T05:32:34.701Z,311.00
2023-04-28T05:33:34.721Z,321.00
2023-04-28T05:34:34.767Z,362.00
2023-04-28T05:35:34.791Z,378.00
2023-04-28T05:36:34.788Z,365.00
2023-04-28T05:37:34.779Z,364.00
2023-04-28T05:38:34.837Z,371.00
2023-04-28T05:39:34.882Z,414.00
2023-04-28T05:40:34.963Z,422.00
2023-04-28T05:41:35.026Z,437.00
2023-04-28T05:42:34.988Z,437.00
2023-04-28T05:43:34.973Z,438.00
2023-04-28T05:44:34.995Z,433.00
2023-04-28T05:45:35.110Z,503.00
2023-04-28T05:46:35.080Z,503.00
2023-04-28T05:47:35.065Z,515.00
2023-04-28T05:48:35.059Z,523.00
2023-04-28T05:49:35.049Z,601.00
2023-04-28T05:50:36.587Z,594.00
2023-04-28T05:51:35.084Z,584.00
2023-04-28T05:52:35.063Z,593.00
2023-04-28T05:53:35.055Z,608.00
2023-04-28T05:54:35.000Z,617.00
2023-04-28T05:55:35.177Z,631.00
2023-04-28T05:56:35.015Z,645.00
2023-04-28T05:57:49.205Z,659.00
2023-04-28T05:58:36.024Z,669.00
2023-04-28T05:59:35.012Z,677.00
2023-04-28T06:00:35.005Z,682.00
2023-04-28T06:01:35.086Z,689.00
2023-04-28T06:02:35.115Z,699.00
2023-04-28T06:03:35.117Z,709.00
2023-04-28T06:04:35.157Z,713.00
2023-04-28T06:05:35.425Z,718.00
2023-04-28T06:06:35.118Z,795.00
2023-04-28T06:07:34.948Z,776.00
2023-04-28T06:08:34.933Z,780.00
2023-04-28T06:09:34.928Z,782.00
2023-04-28T06:10:34.931Z,772.00
2023-04-28T06:11:34.980Z,767.00
2023-04-28T06:12:35.030Z,773.00
2023-04-28T06:13:35.081Z,784.00
2023-04-28T06:14:35.103Z,794.00
2023-04-28T06:15:35.184Z,801.00
2023-04-28T06:16:35.354Z,805.00
2023-04-28T06:17:35.271Z,805.00
2023-04-28T06:18:35.335Z,806.00
2023-04-28T06:19:35.364Z,814.00
2023-04-28T06:20:35.399Z,818.00
2023-04-28T06:21:35.460Z,821.00
2023-04-28T06:22:35.504Z,822.00
2023-04-28T06:23:35.527Z,826.00
2023-04-28T06:24:35.580Z,884.00
2023-04-28T06:25:35.574Z,862.00
2023-04-28T06:26:35.618Z,853.00
2023-04-28T06:27:35.638Z,852.00
2023-04-28T06:28:35.660Z,857.00
2023-04-28T06:29:35.729Z,858.00
2023-04-28T06:30:35.730Z,865.00
2023-04-28T06:31:35.816Z,864.00
2023-04-28T06:32:35.780Z,916.00
2023-04-28T06:33:35.800Z,899.00
2023-04-28T06:34:35.837Z,840.00
2023-04-28T06:35:35.858Z,835.00
2023-04-28T06:36:36.130Z,825.00
2023-04-28T06:37:35.915Z,681.00
2023-04-28T06:38:35.966Z,633.00
2023-04-28T06:39:36.028Z,611.00
2023-04-28T06:40:36.084Z,697.00
2023-04-28T06:41:36.098Z,749.00
2023-04-28T06:42:36.165Z,761.00
2023-04-28T06:43:36.157Z,767.00
2023-04-28T06:44:36.792Z,774.00
2023-04-28T06:45:36.266Z,777.00
2023-04-28T06:46:36.663Z,782.00
2023-04-28T06:47:36.397Z,790.00
2023-04-28T06:48:36.463Z,795.00
2023-04-28T06:49:36.566Z,804.00
2023-04-28T06:50:36.572Z,806.00
2023-04-28T06:51:36.618Z,811.00
2023-04-28T06:52:39.165Z,814.00
2023-04-28T06:53:36.613Z,815.00
2023-04-28T06:54:36.613Z,813.00
2023-04-28T06:55:36.605Z,811.00
2023-04-28T06:56:36.598Z,815.00
2023-04-28T06:57:36.621Z,815.00
2023-04-28T06:58:36.660Z,813.00
2023-04-28T06:59:36.568Z,816.00
2023-04-28T07:00:36.591Z,821.00
2023-04-28T07:01:36.546Z,824.00
2023-04-28T07:02:36.687Z,832.00
2023-04-28T07:03:36.598Z,843.00
2023-04-28T07:04:36.561Z,850.00
2023-04-28T07:05:36.511Z,853.00
2023-04-28T07:06:36.526Z,858.00
2023-04-28T07:07:36.525Z,862.00
2023-04-28T07:08:36.490Z,942.00
2023-04-28T07:09:36.514Z,921.00
2023-04-28T07:10:36.485Z,913.00
2023-04-28T07:11:36.488Z,907.00
2023-04-28T07:12:36.518Z,899.00
2023-04-28T07:13:36.481Z,880.00
2023-04-28T07:14:36.469Z,860.00
2023-04-28T07:15:36.431Z,864.00
2023-04-28T07:16:36.511Z,854.00
2023-04-28T07:17:36.523Z,853.00
2023-04-28T07:18:36.412Z,868.00
2023-04-28T07:19:36.426Z,870.00
2023-04-28T07:20:36.406Z,877.00
2023-04-28T07:21:36.422Z,876.00
2023-04-28T07:22:36.379Z,879.00
2023-04-28T07:23:36.433Z,882.00
2023-04-28T07:24:36.403Z,889.00
2023-04-28T07:25:36.404Z,887.00
2023-04-28T07:26:36.391Z,890.00
2023-04-28T07:27:36.461Z,894.00
2023-04-28T07:28:36.371Z,908.00
2023-04-28T07:29:36.376Z,893.00
2023-04-28T07:30:36.363Z,936.00
2023-04-28T07:31:36.360Z,915.00
2023-04-28T07:32:36.386Z,918.00
2023-04-28T07:33:36.335Z,940.00
2023-04-28T07:34:36.352Z,948.00
2023-04-28T07:35:36.341Z,946.00
2023-04-28T07:36:36.341Z,940.00
2023-04-28T07:37:36.332Z,938.00
2023-04-28T07:38:36.275Z,861.00
2023-04-28T07:39:36.265Z,843.00
2023-04-28T07:40:36.371Z,863.00
2023-04-28T07:41:36.287Z,874.00
2023-04-28T07:42:36.271Z,875.00
2023-04-28T07:43:36.252Z,870.00
2023-04-28T07:44:36.219Z,855.00
2023-04-28T07:45:36.253Z,789.00
2023-04-28T07:46:36.297Z,779.00
2023-04-28T07:47:36.233Z,773.00
2023-04-28T07:48:36.233Z,765.00
2023-04-28T07:49:36.229Z,750.00
2023-04-28T07:50:36.210Z,741.00
2023-04-28T07:51:36.205Z,728.00
2023-04-28T07:52:36.214Z,712.00
2023-04-28T07:53:36.211Z,700.00
2023-04-28T07:54:37.172Z,688.00
2023-04-28T07:55:36.168Z,675.00
2023-04-28T07:56:36.170Z,663.00
2023-04-28T07:57:36.152Z,651.00
2023-04-28T07:58:36.143Z,644.00
2023-04-28T07:59:36.174Z,635.00
2023-04-28T08:00:36.157Z,627.00
2023-04-28T08:01:36.125Z,613.00
2023-04-28T08:02:36.446Z,608.00
2023-04-28T08:03:36.268Z,602.00
2023-04-28T08:04:37.120Z,592.00
2023-04-28T08:05:36.125Z,574.00
2023-04-28T08:06:36.072Z,566.00
2023-04-28T08:07:36.105Z,558.00
2023-04-28T08:08:36.110Z,545.00
2023-04-28T08:09:36.204Z,534.00
2023-04-28T08:10:36.078Z,527.00
2023-04-28T08:11:36.177Z,527.00
2023-04-28T08:12:36.072Z,523.00
2023-04-28T08:13:36.009Z,513.00
2023-04-28T08:14:36.396Z,501.00
2023-04-28T08:15:36.070Z,499.00
2023-04-28T08:16:36.007Z,495.00
2023-04-28T08:17:36.050Z,491.00
2023-04-28T08:18:36.066Z,491.00
2023-04-28T08:19:36.012Z,491.00
2023-04-28T08:20:36.001Z,488.00
2023-04-28T08:21:36.014Z,485.00
2023-04-28T08:22:36.010Z,484.00
2023-04-28T08:23:36.160Z,481.00
2023-04-28T08:24:35.964Z,480.00
2023-04-28T08:25:36.172Z,478.00
2023-04-28T08:26:36.186Z,479.00
2023-04-28T08:27:36.185Z,482.00
2023-04-28T08:28:35.952Z,486.00
2023-04-28T08:29:35.943Z,511.00
2023-04-28T08:30:35.974Z,499.00
2023-04-28T08:31:36.008Z,495.00
2023-04-28T08:32:35.947Z,490.00
2023-04-28T08:33:35.939Z,485.00
2023-04-28T08:34:36.077Z,482.00
2023-04-28T08:35:35.952Z,478.00
2023-04-28T08:36:35.909Z,469.00
2023-04-28T08:37:35.908Z,466.00
2023-04-28T08:38:35.909Z,469.00
2023-04-28T08:39:35.858Z,497.00
2023-04-28T08:40:36.161Z,504.00
2023-04-28T08:41:35.957Z,498.00
2023-04-28T08:42:35.979Z,496.00
2023-04-28T08:43:35.990Z,502.00
2023-04-28T08:44:36.025Z,511.00
2023-04-28T08:45:36.015Z,514.00
2023-04-28T08:46:36.105Z,511.00
2023-04-28T08:47:36.155Z,512.00
2023-04-28T08:48:36.139Z,514.00
2023-04-28T08:49:36.216Z,521.00
2023-04-28T08:50:36.239Z,521.00
2023-04-28T08:51:36.266Z,518.00
2023-04-28T08:52:36.649Z,515.00
2023-04-28T08:53:52.190Z,506.00
2023-04-28T08:54:37.670Z,503.00
2023-04-28T08:55:36.701Z,499.00
2023-04-28T08:56:36.420Z,494.00
2023-04-28T08:57:36.390Z,494.00
2023-04-28T08:58:36.802Z,500.00
2023-04-28T08:59:36.352Z,501.00
2023-04-28T09:00:36.354Z,505.00
2023-04-28T09:01:36.389Z,504.00
2023-04-28T09:02:36.520Z,505.00
2023-04-28T09:03:36.601Z,504.00
2023-04-28T09:04:36.547Z,503.00
2023-04-28T09:05:36.964Z,504.00
2023-04-28T09:06:36.714Z,497.00
2023-04-28T09:07:36.621Z,494.00
2023-04-28T09:08:36.622Z,493.00
2023-04-28T09:09:38.648Z,489.00
2023-04-28T09:10:36.967Z,490.00
2023-04-28T09:11:36.991Z,490.00
2023-04-28T09:12:37.011Z,490.00
2023-04-28T09:13:37.060Z,493.00
2023-04-28T09:14:37.113Z,488.00
2023-04-28T09:15:37.128Z,485.00
2023-04-28T09:16:37.186Z,491.00
2023-04-28T09:17:37.233Z,494.00
2023-04-28T09:18:37.297Z,497.00
2023-04-28T09:19:37.348Z,496.00
2023-04-28T09:20:37.378Z,490.00
2023-04-28T09:21:37.430Z,488.00
2023-04-28T09:22:37.708Z,489.00
2023-04-28T09:23:37.587Z,546.00
2023-04-28T09:24:37.605Z,518.00
2023-04-28T09:25:38.183Z,517.00
2023-04-28T09:26:37.732Z,514.00
2023-04-28T09:27:37.817Z,512.00
2023-04-28T09:28:37.892Z,510.00
2023-04-28T09:29:37.944Z,506.00
2023-04-28T09:30:38.037Z,479.00
2023-04-28T09:31:38.119Z,490.00
2023-04-28T09:32:38.171Z,498.00
2023-04-28T09:33:38.167Z,500.00
2023-04-28T09:34:38.200Z,514.00
2023-04-28T09:35:38.233Z,518.00
2023-04-28T09:36:38.361Z,521.00
2023-04-28T09:37:38.719Z,525.00
2023-04-28T09:38:38.459Z,523.00
2023-04-28T09:39:38.548Z,524.00
2023-04-28T09:40:38.623Z,531.00
2023-04-28T09:41:38.676Z,550.00
2023-04-28T09:42:38.663Z,580.00
2023-04-28T09:43:38.701Z,578.00
2023-04-28T09:44:38.770Z,582.00
2023-04-28T09:45:39.265Z,594.00
2023-04-28T09:46:38.830Z,603.00
2023-04-28T09:47:38.907Z,610.00
2023-04-28T09:48:38.919Z,619.00
2023-04-28T09:49:38.950Z,624.00
2023-04-28T09:50:38.962Z,628.00
2023-04-28T09:51:45.685Z,635.00
2023-04-28T09:52:38.988Z,639.00
2023-04-28T09:53:38.949Z,644.00
2023-04-28T09:54:38.984Z,649.00
2023-04-28T09:55:39.186Z,663.00
2023-04-28T09:56:39.722Z,675.00
2023-04-28T09:57:39.203Z,699.00
2023-04-28T09:58:39.218Z,713.00
2023-04-28T09:59:39.186Z,717.00
2023-04-28T10:00:38.932Z,724.00
2023-04-28T10:01:38.999Z,729.00
2023-04-28T10:02:43.278Z,733.00
2023-04-28T10:03:40.032Z,738.00
2023-04-28T10:04:39.097Z,736.00
2023-04-28T10:05:38.993Z,732.00
2023-04-28T10:06:38.885Z,734.00
2023-04-28T10:07:38.883Z,734.00
2023-04-28T10:08:38.847Z,734.00
2023-04-28T10:09:38.930Z,742.00
2023-04-28T10:10:38.858Z,751.00
2023-04-28T10:11:38.831Z,755.00
2023-04-28T10:12:39.284Z,759.00
2023-04-28T10:13:38.842Z,758.00
2023-04-28T10:14:38.804Z,758.00
2023-04-28T10:15:38.860Z,760.00
2023-04-28T10:16:38.793Z,766.00
2023-04-28T10:17:38.855Z,770.00
2023-04-28T10:18:38.773Z,768.00
2023-04-28T10:19:38.798Z,770.00
2023-04-28T10:20:38.756Z,775.00
2023-04-28T10:21:38.868Z,773.00
2023-04-28T10:22:38.868Z,771.00
2023-04-28T10:23:38.925Z,835.00
2023-04-28T10:24:38.939Z,769.00
2023-04-28T10:25:39.240Z,766.00
2023-04-28T10:26:39.075Z,768.00
2023-04-28T10:27:39.143Z,769.00
2023-04-28T10:28:39.211Z,772.00
2023-04-28T10:29:39.269Z,770.00
2023-04-28T10:30:39.343Z,771.00
2023-04-28T10:31:39.441Z,774.00
2023-04-28T10:32:39.455Z,769.00
2023-04-28T10:33:39.498Z,771.00
2023-04-28T10:34:39.540Z,774.00
2023-04-28T10:35:39.619Z,771.00
2023-04-28T10:36:39.718Z,769.00
2023-04-28T10:37:39.726Z,772.00
2023-04-28T10:38:39.799Z,768.00
2023-04-28T10:39:39.833Z,755.00
2023-04-28T10:40:40.225Z,664.00
2023-04-28T10:41:40.276Z,621.00
2023-04-28T10:42:39.917Z,570.00
2023-04-28T10:43:40.120Z,560.00
2023-04-28T10:44:39.903Z,552.00
2023-04-28T10:45:39.944Z,545.00
2023-04-28T10:46:40.010Z,540.00
2023-04-28T10:47:40.025Z,535.00
2023-04-28T10:48:40.021Z,532.00
2023-04-28T10:49:40.089Z,531.00
2023-04-28T10:50:40.089Z,541.00
2023-04-28T10:51:40.149Z,563.00
2023-04-28T10:52:40.143Z,574.00
2023-04-28T10:53:40.155Z,583.00
2023-04-28T10:54:40.132Z,589.00
2023-04-28T10:55:40.309Z,598.00
2023-04-28T10:56:42.050Z,605.00
2023-04-28T10:57:40.190Z,613.00
2023-04-28T10:58:40.203Z,623.00
2023-04-28T10:59:40.184Z,631.00
2023-04-28T11:00:40.223Z,640.00
2023-04-28T11:01:40.336Z,647.00
2023-04-28T11:02:43.406Z,658.00
2023-04-28T11:03:40.408Z,677.00
2023-04-28T11:04:40.403Z,687.00
2023-04-28T11:05:40.732Z,682.00
2023-04-28T11:06:40.320Z,687.00
2023-04-28T11:07:40.282Z,689.00
2023-04-28T11:08:40.262Z,690.00
2023-04-28T11:09:40.244Z,696.00
2023-04-28T11:10:40.207Z,711.00
2023-04-28T11:11:40.245Z,710.00
2023-04-28T11:12:40.238Z,712.00
2023-04-28T11:13:42.358Z,712.00
2023-04-28T11:14:40.576Z,720.00
2023-04-28T11:15:40.378Z,775.00
2023-04-28T11:16:40.542Z,789.00
2023-04-28T11:17:40.496Z,789.00
2023-04-28T11:18:40.781Z,787.00
2023-04-28T11:19:40.478Z,793.00
2023-04-28T11:20:40.528Z,800.00
2023-04-28T11:21:40.742Z,804.00
2023-04-28T11:22:40.560Z,800.00
2023-04-28T11:23:40.603Z,788.00
2023-04-28T11:24:40.669Z,762.00
2023-04-28T11:25:40.689Z,744.00
2023-04-28T11:26:40.733Z,705.00
2023-04-28T11:27:40.761Z,695.00
2023-04-28T11:28:40.772Z,677.00
2023-04-28T11:29:40.852Z,632.00
2023-04-28T11:30:40.910Z,627.00
2023-04-28T11:31:41.024Z,624.00
2023-04-28T11:32:41.006Z,615.00
2023-04-28T11:33:41.036Z,607.00
2023-04-28T11:34:41.094Z,594.00
2023-04-28T11:35:41.195Z,582.00
2023-04-28T11:36:41.198Z,565.00
2023-04-28T11:37:41.254Z,554.00
2023-04-28T11:38:41.310Z,542.00
2023-04-28T11:39:41.395Z,534.00
2023-04-28T11:40:41.441Z,526.00
2023-04-28T11:41:41.470Z,515.00
2023-04-28T11:42:41.557Z,506.00
2023-04-28T11:43:47.336Z,497.00
2023-04-28T11:44:42.590Z,492.00
2023-04-28T11:45:41.617Z,479.00
2023-04-28T11:46:41.569Z,472.00
2023-04-28T11:47:41.707Z,463.00
2023-04-28T11:48:41.613Z,455.00
2023-04-28T11:49:41.567Z,454.00
2023-04-28T11:50:41.532Z,450.00
2023-04-28T11:51:41.565Z,449.00
2023-04-28T11:52:41.576Z,446.00
2023-04-28T11:53:41.533Z,445.00
2023-04-28T11:54:41.548Z,439.00
2023-04-28T11:55:41.552Z,434.00
2023-04-28T11:56:41.513Z,429.00
2023-04-28T11:57:41.518Z,429.00
2023-04-28T11:58:41.490Z,428.00
2023-04-28T11:59:42.751Z,428.00
2023-04-28T12:00:41.501Z,429.00
2023-04-28T12:01:41.468Z,431.00
2023-04-28T12:02:41.644Z,430.00
2023-04-28T12:03:41.607Z,428.00
2023-04-28T12:04:41.487Z,430.00
2023-04-28T12:05:41.531Z,432.00
2023-04-28T12:06:41.461Z,435.00
2023-04-28T12:07:41.423Z,437.00
2023-04-28T12:08:41.433Z,435.00
2023-04-28T12:09:41.723Z,436.00
2023-04-28T12:10:41.429Z,460.00
2023-04-28T12:11:41.492Z,438.00
2023-04-28T12:13:41.495Z,424.00
2023-04-28T12:14:41.646Z,432.00
2023-04-28T12:15:41.543Z,421.00
2023-04-28T12:16:41.435Z,415.00
2023-04-28T12:17:41.501Z,424.00
2023-04-28T12:18:41.500Z,429.00
2023-04-28T12:19:41.557Z,430.00
2023-04-28T12:20:41.437Z,435.00
2023-04-28T12:21:41.402Z,441.00
2023-04-28T12:22:41.452Z,445.00
2023-04-28T12:23:41.425Z,473.00
2023-04-28T12:24:41.402Z,463.00
2023-04-28T12:25:41.407Z,461.00
2023-04-28T12:26:41.386Z,466.00
2023-04-28T12:27:41.389Z,469.00
2023-04-28T12:28:41.413Z,477.00
2023-04-28T12:29:41.627Z,477.00